createdAt,value
2023-02-16T00:00:20.451Z,40.03
2023-02-16T00:02:47.376Z,39.80
2023-02-16T00:05:34.878Z,46.17
2023-02-16T00:08:02.095Z,42.30
2023-02-16T00:10:37.419Z,41.80
2023-02-16T00:13:44.666Z,43.63
2023-02-16T00:16:20.534Z,43.33
2023-02-16T00:18:48.494Z,43.80
2023-02-16T00:21:16.100Z,39.60
2023-02-16T00:23:43.353Z,41.53
2023-02-16T00:26:20.031Z,47.30
2023-02-16T00:28:50.434Z,45.50
2023-02-16T00:31:23.453Z,43.60
2023-02-16T00:33:50.921Z,42.37
2023-02-16T00:36:17.815Z,47.47
2023-02-16T00:38:45.173Z,50.47
2023-02-16T00:41:42.846Z,59.43
2023-02-16T00:44:24.133Z,47.87
2023-02-16T00:46:51.200Z,53.73
2023-02-16T00:49:20.156Z,47.30
2023-02-16T00:51:47.373Z,46.70
2023-02-16T00:54:14.587Z,46.43
2023-02-16T00:56:42.849Z,48.90
2023-02-16T00:59:18.588Z,49.80
2023-02-16T01:01:45.892Z,57.27
2023-02-16T01:04:21.574Z,45.57
2023-02-16T01:07:07.175Z,55.40
2023-02-16T01:09:52.809Z,48.70
2023-02-16T01:12:21.388Z,47.77
2023-02-16T01:14:55.364Z,49.10
2023-02-16T01:17:23.219Z,44.73
2023-02-16T01:19:50.229Z,44.80
2023-02-16T01:22:17.355Z,47.67
2023-02-16T01:24:44.810Z,51.23
2023-02-16T01:27:13.807Z,50.70
2023-02-16T01:29:40.707Z,41.60
2023-02-16T01:32:07.977Z,40.33
2023-02-16T01:34:35.230Z,46.83
2023-02-16T01:37:02.151Z,51.03
2023-02-16T01:39:29.127Z,51.70
2023-02-16T01:42:14.986Z,50.00
2023-02-16T01:44:45.097Z,53.00
2023-02-16T01:47:36.998Z,48.77
2023-02-16T01:50:27.581Z,45.10
2023-02-16T01:53:24.880Z,49.60
2023-02-16T01:55:57.739Z,53.53
2023-02-16T01:58:45.057Z,45.67
2023-02-16T02:01:33.275Z,45.33
2023-02-16T02:04:18.996Z,45.30
2023-02-16T02:06:47.053Z,51.20
2023-02-16T02:09:45.470Z,52.10
2023-02-16T02:12:44.569Z,49.57
2023-02-16T02:15:13.611Z,48.90
2023-02-16T02:17:40.673Z,44.03
2023-02-16T02:20:23.155Z,46.40
2023-02-16T02:23:41.872Z,44.47
2023-02-16T02:26:33.068Z,45.97
2023-02-16T02:28:59.925Z,45.90
2023-02-16T02:32:00.513Z,46.43
2023-02-16T02:34:51.104Z,40.23
2023-02-16T02:37:39.282Z,44.40
2023-02-16T02:40:18.395Z,42.87
2023-02-16T02:42:51.549Z,45.57
2023-02-16T02:45:34.799Z,49.23
2023-02-16T02:48:01.629Z,45.43
2023-02-16T02:50:37.989Z,48.83
2023-02-16T02:53:11.919Z,42.03
2023-02-16T02:56:01.530Z,49.10
2023-02-16T02:58:51.268Z,43.37
2023-02-16T03:01:20.064Z,47.67
2023-02-16T03:03:50.950Z,54.87
2023-02-16T03:06:34.502Z,44.20
2023-02-16T03:09:11.879Z,47.63
2023-02-16T03:11:57.414Z,51.20
2023-02-16T03:14:58.827Z,50.67
2023-02-16T03:17:52.029Z,43.67
2023-02-16T03:20:38.640Z,51.13
2023-02-16T03:23:26.843Z,45.87
2023-02-16T03:26:12.815Z,46.40
2023-02-16T03:29:03.182Z,51.20
2023-02-16T03:31:35.209Z,46.00
2023-02-16T03:34:02.906Z,51.03
2023-02-16T03:36:33.223Z,44.20
2023-02-16T03:39:00.627Z,45.23
2023-02-16T03:41:33.133Z,42.17
2023-02-16T03:44:00.316Z,45.40
2023-02-16T03:46:27.333Z,50.37
2023-02-16T03:48:54.169Z,49.00
2023-02-16T03:51:21.066Z,43.40
2023-02-16T03:53:48.358Z,53.43
2023-02-16T03:56:15.365Z,46.33
2023-02-16T03:58:42.459Z,48.10
2023-02-16T04:01:09.545Z,46.07
2023-02-16T04:03:36.543Z,45.80
2023-02-16T04:06:03.813Z,46.70
2023-02-16T04:08:30.805Z,44.43
2023-02-16T04:10:57.928Z,51.57
2023-02-16T04:13:24.963Z,49.17
2023-02-16T04:15:52.019Z,54.60
2023-02-16T04:18:19.030Z,47.27
2023-02-16T04:20:45.988Z,55.67
2023-02-16T04:23:12.827Z,53.03
2023-02-16T04:25:40.144Z,45.77
2023-02-16T04:28:07.031Z,52.93
2023-02-16T04:30:34.025Z,48.57
2023-02-16T04:33:01.136Z,58.67
2023-02-16T04:35:28.059Z,51.87
2023-02-16T04:37:54.906Z,44.73
2023-02-16T04:40:22.948Z,43.50
2023-02-16T04:42:49.889Z,44.97
2023-02-16T04:45:35.106Z,39.20
2023-02-16T04:48:02.055Z,47.83
2023-02-16T04:50:29.150Z,45.27
2023-02-16T04:52:56.126Z,44.07
2023-02-16T04:55:23.055Z,46.00
2023-02-16T04:57:50.334Z,46.13
2023-02-16T05:00:17.565Z,44.00
2023-02-16T05:02:44.436Z,57.40
2023-02-16T05:05:11.387Z,52.53
2023-02-16T05:07:38.324Z,48.33
2023-02-16T05:10:06.245Z,49.97
2023-02-16T05:12:51.564Z,48.37
2023-02-16T05:15:18.640Z,49.30
2023-02-16T05:17:45.752Z,49.10
2023-02-16T05:20:13.745Z,50.00
2023-02-16T05:22:40.760Z,47.63
2023-02-16T05:25:08.215Z,46.30
2023-02-16T05:27:35.532Z,48.00
2023-02-16T05:30:02.969Z,48.90
2023-02-16T05:32:30.258Z,43.93
2023-02-16T05:34:58.048Z,44.57
2023-02-16T05:37:25.126Z,51.60
2023-02-16T05:39:53.288Z,48.33
2023-02-16T05:42:21.423Z,43.50
2023-02-16T05:44:48.619Z,47.23
2023-02-16T05:47:16.579Z,45.20
2023-02-16T05:49:44.117Z,45.03
2023-02-16T05:52:11.230Z,48.30
2023-02-16T05:54:38.435Z,48.80
2023-02-16T05:57:05.569Z,55.53
2023-02-16T05:59:32.521Z,50.93
2023-02-16T06:01:59.495Z,52.07
2023-02-16T06:04:27.007Z,45.57
2023-02-16T06:06:54.322Z,45.77
2023-02-16T06:09:21.787Z,45.80
2023-02-16T06:11:48.963Z,53.00
2023-02-16T06:14:18.881Z,47.17
2023-02-16T06:16:50.220Z,53.03
2023-02-16T06:19:19.146Z,49.47
2023-02-16T06:21:46.917Z,54.27
2023-02-16T06:24:14.642Z,42.67
2023-02-16T06:26:41.899Z,53.37
2023-02-16T06:29:09.657Z,50.47
2023-02-16T06:31:37.152Z,45.77
2023-02-16T06:34:04.877Z,50.00
2023-02-16T06:36:31.836Z,43.60
2023-02-16T06:38:58.742Z,63.83
2023-02-16T06:41:31.813Z,46.60
2023-02-16T06:44:04.972Z,48.57
2023-02-16T06:46:32.285Z,48.77
2023-02-16T06:48:59.642Z,45.73
2023-02-16T06:51:27.070Z,46.43
2023-02-16T06:53:53.954Z,47.60
2023-02-16T06:56:21.178Z,47.37
2023-02-16T06:58:48.259Z,45.30
2023-02-16T07:01:15.864Z,39.40
2023-02-16T07:03:42.736Z,44.53
2023-02-16T07:06:10.046Z,49.10
2023-02-16T07:08:37.034Z,43.60
2023-02-16T07:11:04.607Z,52.27
2023-02-16T07:13:32.286Z,53.03
2023-02-16T07:15:59.319Z,44.23
2023-02-16T07:18:26.207Z,58.43
2023-02-16T07:20:53.470Z,43.87
2023-02-16T07:23:21.424Z,48.40
2023-02-16T07:25:48.804Z,52.00
2023-02-16T07:28:15.959Z,44.53
2023-02-16T07:30:43.336Z,49.00
2023-02-16T07:33:11.406Z,45.93
2023-02-16T07:35:38.652Z,47.03
2023-02-16T07:38:06.060Z,47.03
2023-02-16T07:40:33.254Z,45.80
2023-02-16T07:43:01.777Z,54.87
2023-02-16T07:45:29.998Z,47.47
2023-02-16T07:47:56.827Z,59.97
2023-02-16T07:50:23.765Z,47.77
2023-02-16T07:52:51.002Z,47.10
2023-02-16T07:55:18.385Z,52.17
2023-02-16T07:57:45.302Z,50.27
2023-02-16T08:00:13.163Z,44.23
2023-02-16T08:02:40.696Z,54.13
2023-02-16T08:05:07.888Z,49.40
2023-02-16T08:07:34.843Z,53.63
2023-02-16T08:10:01.742Z,64.10
2023-02-16T08:12:28.843Z,45.03
2023-02-16T08:14:55.994Z,52.27
2023-02-16T08:17:23.008Z,60.90
2023-02-16T08:19:50.801Z,43.57
2023-02-16T08:22:18.464Z,50.00
2023-02-16T08:24:45.561Z,52.73
2023-02-16T08:27:12.616Z,49.40
2023-02-16T08:29:39.718Z,62.63
2023-02-16T08:32:08.312Z,52.33
2023-02-16T08:34:35.473Z,50.57
2023-02-16T08:37:02.451Z,50.33
2023-02-16T08:39:31.573Z,59.00
2023-02-16T08:42:00.001Z,52.33
2023-02-16T08:44:27.502Z,58.33
2023-02-16T08:46:56.067Z,53.27
2023-02-16T08:49:24.200Z,53.80
2023-02-16T08:51:58.063Z,47.80
2023-02-16T08:54:30.563Z,50.80
2023-02-16T08:56:59.831Z,59.47
2023-02-16T08:59:28.878Z,52.50
2023-02-16T09:01:57.360Z,47.80
2023-02-16T09:04:25.703Z,49.00
2023-02-16T09:06:53.490Z,53.27
2023-02-16T09:09:20.596Z,48.80
2023-02-16T09:11:48.625Z,60.90
2023-02-16T09:14:18.155Z,55.00
2023-02-16T09:16:45.864Z,47.47
2023-02-16T09:19:16.080Z,48.60
2023-02-16T09:21:43.760Z,47.57
2023-02-16T09:24:11.691Z,57.03
2023-02-16T09:26:42.477Z,39.47
2023-02-16T09:29:11.117Z,39.50
2023-02-16T09:31:39.673Z,43.03
2023-02-16T09:34:22.251Z,37.80
2023-02-16T09:36:49.898Z,41.50
2023-02-16T09:39:17.701Z,41.53
2023-02-16T09:42:10.804Z,41.03
2023-02-16T09:45:02.747Z,40.93
2023-02-16T09:47:32.102Z,43.47
2023-02-16T09:50:27.698Z,42.03
2023-02-16T09:53:19.204Z,43.50
2023-02-16T09:55:59.675Z,38.43
2023-02-16T09:58:49.765Z,38.73
2023-02-16T10:01:39.995Z,36.17
2023-02-16T10:04:48.695Z,43.10
2023-02-16T10:07:32.887Z,41.63
2023-02-16T10:10:02.654Z,44.07
2023-02-16T10:12:42.176Z,39.20
2023-02-16T10:15:20.661Z,49.17
2023-02-16T10:17:57.788Z,47.00
2023-02-16T10:20:33.137Z,47.07
2023-02-16T10:23:31.472Z,41.07
2023-02-16T10:26:06.604Z,40.30
2023-02-16T10:28:48.031Z,41.47
2023-02-16T10:31:15.181Z,55.80
2023-02-16T10:33:43.754Z,43.40
2023-02-16T10:36:24.470Z,39.40
2023-02-16T10:39:27.786Z,39.23
2023-02-16T10:42:22.450Z,41.50
2023-02-16T10:44:58.408Z,35.43
2023-02-16T10:47:31.748Z,44.13
2023-02-16T10:49:59.278Z,42.50
2023-02-16T10:52:31.797Z,39.83
2023-02-16T10:54:58.876Z,39.23
2023-02-16T10:57:34.826Z,42.63
2023-02-16T11:00:06.819Z,39.40
2023-02-16T11:02:38.716Z,45.50
2023-02-16T11:05:34.677Z,41.90
2023-02-16T11:08:02.036Z,40.20
2023-02-16T11:10:52.033Z,43.43
2023-02-16T11:13:37.428Z,45.33
2023-02-16T11:16:19.365Z,41.60
2023-02-16T11:18:56.030Z,38.13
2023-02-16T11:21:55.221Z,44.07
2023-02-16T11:24:30.875Z,39.50
2023-02-16T11:27:13.756Z,44.00
2023-02-16T11:29:41.160Z,43.07
2023-02-16T11:32:10.628Z,44.07
2023-02-16T11:34:42.954Z,44.30
2023-02-16T11:37:25.270Z,42.67
2023-02-16T11:39:56.338Z,47.27
2023-02-16T11:42:23.216Z,41.57
2023-02-16T11:44:56.359Z,41.67
2023-02-16T11:47:24.849Z,43.10
2023-02-16T11:50:14.127Z,45.63
2023-02-16T11:52:41.535Z,45.80
2023-02-16T11:55:20.909Z,43.63
2023-02-16T11:57:49.688Z,42.70
2023-02-16T12:00:19.738Z,51.23
2023-02-16T12:03:06.277Z,41.53
2023-02-16T12:05:58.538Z,43.40
2023-02-16T12:08:28.645Z,52.30
2023-02-16T12:11:15.843Z,40.60
2023-02-16T12:14:08.347Z,41.93
2023-02-16T12:16:52.841Z,51.80
2023-02-16T12:19:41.152Z,50.03
2023-02-16T12:22:11.559Z,46.33
2023-02-16T12:25:26.828Z,43.17
2023-02-16T12:28:13.413Z,46.07
2023-02-16T12:30:58.635Z,53.10
2023-02-16T12:33:38.316Z,47.10
2023-02-16T12:36:08.219Z,46.17
2023-02-16T12:38:44.324Z,44.60
2023-02-16T12:41:56.550Z,44.93
2023-02-16T12:44:36.417Z,45.47
2023-02-16T12:47:08.516Z,45.20
2023-02-16T12:49:52.141Z,42.53
2023-02-16T12:52:42.335Z,42.83
2023-02-16T12:55:20.219Z,50.27
2023-02-16T12:58:10.391Z,52.40
2023-02-16T13:00:49.861Z,51.20
2023-02-16T13:03:54.559Z,50.87
2023-02-16T13:06:45.398Z,51.80
2023-02-16T13:09:24.986Z,52.13
2023-02-16T13:12:12.267Z,44.90
2023-02-16T13:14:43.460Z,57.80
2023-02-16T13:17:16.350Z,48.00
2023-02-16T13:19:45.468Z,47.03
2023-02-16T13:22:23.172Z,46.53
2023-02-16T13:25:38.852Z,50.50
2023-02-16T13:28:24.959Z,49.23
2023-02-16T13:31:18.756Z,54.17
2023-02-16T13:34:08.188Z,47.63
2023-02-16T13:36:53.612Z,51.33
2023-02-16T13:39:35.857Z,50.13
2023-02-16T13:42:23.897Z,50.63
2023-02-16T13:44:57.172Z,47.13
2023-02-16T13:47:31.648Z,53.83
2023-02-16T13:50:05.035Z,49.40
2023-02-16T13:52:41.212Z,47.20
2023-02-16T13:55:30.274Z,52.80
2023-02-16T13:58:08.705Z,49.83
2023-02-16T14:00:42.332Z,49.87
2023-02-16T14:03:20.086Z,52.60
2023-02-16T14:05:53.153Z,47.70
2023-02-16T14:08:32.330Z,49.83
2023-02-16T14:11:02.993Z,42.90
2023-02-16T14:13:38.187Z,44.97
2023-02-16T14:16:11.182Z,52.40
2023-02-16T14:18:46.376Z,51.53
2023-02-16T14:21:27.352Z,42.53
2023-02-16T14:24:00.021Z,49.90
2023-02-16T14:26:27.771Z,48.80
2023-02-16T14:29:21.320Z,47.20
2023-02-16T14:31:58.475Z,48.23
2023-02-16T14:34:36.623Z,42.43
2023-02-16T14:37:24.955Z,46.17
2023-02-16T14:40:07.428Z,48.57
2023-02-16T14:42:37.134Z,40.93
2023-02-16T14:45:44.235Z,51.50
2023-02-16T14:48:18.052Z,48.50
2023-02-16T14:51:10.787Z,51.03
2023-02-16T14:53:59.427Z,47.60
2023-02-16T14:56:38.767Z,50.33
2023-02-16T14:59:21.797Z,42.80
2023-02-16T15:01:49.317Z,46.30
2023-02-16T15:04:30.994Z,48.50
2023-02-16T15:07:03.178Z,46.10
2023-02-16T15:09:34.838Z,47.90
2023-02-16T15:12:24.215Z,46.30
2023-02-16T15:14:59.639Z,41.90
2023-02-16T15:17:35.911Z,45.97
2023-02-16T15:20:21.910Z,51.47
2023-02-16T15:22:54.935Z,51.67
2023-02-16T15:25:24.564Z,54.43
2023-02-16T15:28:19.139Z,47.27
2023-02-16T15:30:53.998Z,47.47
2023-02-16T15:33:24.262Z,42.10
2023-02-16T15:36:17.973Z,42.53
2023-02-16T15:38:58.779Z,47.47
2023-02-16T15:41:38.298Z,52.97
2023-02-16T15:44:13.436Z,60.67
2023-02-16T15:46:44.485Z,51.37
2023-02-16T15:49:30.388Z,44.37
2023-02-16T15:51:58.012Z,49.40
2023-02-16T15:54:35.606Z,45.50
2023-02-16T15:57:07.002Z,43.23
2023-02-16T15:59:35.899Z,48.77
2023-02-16T16:03:01.160Z,45.97
2023-02-16T16:05:36.265Z,47.27
2023-02-16T16:08:04.382Z,49.10
2023-02-16T16:10:32.380Z,42.57
2023-02-16T16:13:12.071Z,46.47
2023-02-16T16:15:42.691Z,51.57
2023-02-16T16:18:32.359Z,45.17
2023-02-16T16:21:02.870Z,49.53
2023-02-16T16:23:30.504Z,42.00
2023-02-16T16:25:58.770Z,52.50
2023-02-16T16:28:28.670Z,49.23
2023-02-16T16:31:08.586Z,51.13
2023-02-16T16:33:56.803Z,52.60
2023-02-16T16:36:41.942Z,50.10
2023-02-16T16:39:17.927Z,47.80
2023-02-16T16:41:48.448Z,48.70
2023-02-16T16:44:34.054Z,42.63
2023-02-16T16:47:19.858Z,44.63
2023-02-16T16:49:57.272Z,46.97
2023-02-16T16:52:43.137Z,50.17
2023-02-16T16:55:19.132Z,47.80
2023-02-16T16:57:50.920Z,53.23
2023-02-16T17:00:18.881Z,45.50
2023-02-16T17:02:45.984Z,47.80
2023-02-16T17:05:13.725Z,49.00
2023-02-16T17:07:40.549Z,39.70
2023-02-16T17:10:08.367Z,41.87
2023-02-16T17:12:35.691Z,43.60
2023-02-16T17:15:03.237Z,51.60
2023-02-16T17:17:31.810Z,45.50
2023-02-16T17:19:58.880Z,37.40
2023-02-16T17:22:26.362Z,33.00
2023-02-16T17:24:53.243Z,36.17
2023-02-16T17:27:20.185Z,39.73
2023-02-16T17:29:47.279Z,37.53
2023-02-16T17:32:14.427Z,32.53
2023-02-16T17:34:41.317Z,33.17
2023-02-16T17:37:08.239Z,37.57
2023-02-16T17:39:35.871Z,33.90
2023-02-16T17:42:03.282Z,31.20
2023-02-16T17:44:30.305Z,37.17
2023-02-16T17:46:57.327Z,32.60
2023-02-16T17:49:24.273Z,53.47
2023-02-16T17:51:56.061Z,34.07
2023-02-16T17:54:23.060Z,34.00
2023-02-16T17:56:50.491Z,29.80
2023-02-16T17:59:17.478Z,27.20
2023-02-16T18:01:45.731Z,27.33
2023-02-16T18:04:12.698Z,27.30
2023-02-16T18:06:40.045Z,36.80
2023-02-16T18:09:07.849Z,32.47
2023-02-16T18:11:34.671Z,28.23
2023-02-16T18:14:01.810Z,27.93
2023-02-16T18:16:28.849Z,29.40
2023-02-16T18:18:57.508Z,33.87
2023-02-16T18:21:24.844Z,33.10
2023-02-16T18:23:52.426Z,26.20
2023-02-16T18:26:19.436Z,25.97
2023-02-16T18:28:46.420Z,37.57
2023-02-16T18:31:14.845Z,27.97
2023-02-16T18:33:42.212Z,29.20
2023-02-16T18:36:10.093Z,29.10
2023-02-16T18:38:37.076Z,27.07
2023-02-16T18:41:04.775Z,38.47
2023-02-16T18:43:31.747Z,29.90
2023-02-16T18:45:58.764Z,42.63
2023-02-16T18:48:25.771Z,32.30
2023-02-16T18:50:52.881Z,32.37
2023-02-16T18:53:20.350Z,34.13
2023-02-16T18:55:47.413Z,37.87
2023-02-16T18:58:15.394Z,32.57
2023-02-16T19:00:42.951Z,26.53
2023-02-16T19:03:09.893Z,29.50
2023-02-16T19:05:37.283Z,35.13
2023-02-16T19:08:04.404Z,31.03
2023-02-16T19:10:31.495Z,27.90
2023-02-16T19:13:01.106Z,28.00
2023-02-16T19:15:28.163Z,27.67
2023-02-16T19:17:55.336Z,32.63
2023-02-16T19:20:22.250Z,33.43
2023-02-16T19:22:50.512Z,30.60
2023-02-16T19:25:17.641Z,30.50
2023-02-16T19:27:44.865Z,30.70
2023-02-16T19:30:12.305Z,31.20
2023-02-16T19:32:41.178Z,33.30
2023-02-16T19:35:12.207Z,28.30
2023-02-16T19:37:39.260Z,32.07
2023-02-16T19:40:09.598Z,28.33
2023-02-16T19:42:37.233Z,36.47
2023-02-16T19:45:05.323Z,37.73
2023-02-16T19:47:32.254Z,27.43
2023-02-16T19:49:59.156Z,30.07
2023-02-16T19:52:26.096Z,28.90
2023-02-16T19:54:52.993Z,29.13
2023-02-16T19:57:20.849Z,26.40
2023-02-16T19:59:47.873Z,29.33
2023-02-16T20:02:15.640Z,29.23
2023-02-16T20:04:43.833Z,31.60
2023-02-16T20:07:11.355Z,27.70
2023-02-16T20:09:38.850Z,28.10
2023-02-16T20:12:06.341Z,30.23
2023-02-16T20:14:33.424Z,30.50
2023-02-16T20:17:00.358Z,30.57
2023-02-16T20:19:27.332Z,30.40
2023-02-16T20:21:54.242Z,32.33
2023-02-16T20:24:21.306Z,27.63
2023-02-16T20:26:51.318Z,27.93
2023-02-16T20:29:18.213Z,29.97
2023-02-16T20:31:51.765Z,28.00
2023-02-16T20:34:19.235Z,30.17
2023-02-16T20:36:46.128Z,32.13
2023-02-16T20:39:13.549Z,29.80
2023-02-16T20:41:41.382Z,34.57
2023-02-16T20:44:08.881Z,29.93
2023-02-16T20:46:37.162Z,32.40
2023-02-16T20:49:04.711Z,34.10
2023-02-16T20:51:31.914Z,37.57
2023-02-16T20:54:00.836Z,28.90
2023-02-16T20:56:29.085Z,29.43
2023-02-16T20:58:57.477Z,34.27
2023-02-16T21:01:31.932Z,31.77
2023-02-16T21:04:00.320Z,31.70
2023-02-16T21:06:28.407Z,28.43
2023-02-16T21:08:56.403Z,31.40
2023-02-16T21:11:24.646Z,30.83
2023-02-16T21:13:52.255Z,32.60
2023-02-16T21:16:19.270Z,34.83
2023-02-16T21:18:46.320Z,30.33
2023-02-16T21:21:15.729Z,30.97
2023-02-16T21:23:51.265Z,32.07
2023-02-16T21:26:19.420Z,29.87
2023-02-16T21:28:46.909Z,30.77
2023-02-16T21:31:17.817Z,29.97
2023-02-16T21:33:44.885Z,31.37
2023-02-16T21:36:18.056Z,32.93
2023-02-16T21:38:45.345Z,42.50
2023-02-16T21:41:24.282Z,32.77
2023-02-16T21:44:01.712Z,32.10
2023-02-16T21:46:39.913Z,33.57
2023-02-16T21:49:09.343Z,31.43
2023-02-16T21:51:38.114Z,32.23
2023-02-16T21:54:12.214Z,32.90
2023-02-16T21:56:50.417Z,31.60
2023-02-16T21:59:19.487Z,37.00
2023-02-16T22:01:48.432Z,34.83
2023-02-16T22:04:18.210Z,38.00
2023-02-16T22:06:47.655Z,35.73
2023-02-16T22:09:21.136Z,36.40
2023-02-16T22:11:48.778Z,33.27
2023-02-16T22:14:16.068Z,34.60
2023-02-16T22:16:45.576Z,33.53
2023-02-16T22:19:14.237Z,39.50
2023-02-16T22:21:43.352Z,33.03
2023-02-16T22:24:15.533Z,37.60
2023-02-16T22:26:43.354Z,34.67
2023-02-16T22:29:11.660Z,39.03
2023-02-16T22:31:39.014Z,34.87
2023-02-16T22:34:08.705Z,41.70
2023-02-16T22:36:36.632Z,31.70
2023-02-16T22:39:04.596Z,32.87
2023-02-16T22:41:31.959Z,32.67
2023-02-16T22:44:01.212Z,36.80
2023-02-16T22:46:29.287Z,37.43
2023-02-16T22:49:01.045Z,35.13
2023-02-16T22:51:30.327Z,38.20
2023-02-16T22:54:02.049Z,33.17
2023-02-16T22:56:30.441Z,31.90
2023-02-16T22:58:58.754Z,33.30
2023-02-16T23:01:28.252Z,31.83
2023-02-16T23:03:57.575Z,34.57
2023-02-16T23:06:32.008Z,31.73
2023-02-16T23:09:08.224Z,32.90
2023-02-16T23:11:36.017Z,34.83
2023-02-16T23:14:03.676Z,31.60
2023-02-16T23:16:31.297Z,31.57
2023-02-16T23:19:00.535Z,40.00
2023-02-16T23:21:32.559Z,33.87
2023-02-16T23:24:00.296Z,33.00
2023-02-16T23:26:30.395Z,35.87
2023-02-16T23:29:00.647Z,33.80
2023-02-16T23:31:30.532Z,28.40
2023-02-16T23:33:57.574Z,30.97
2023-02-16T23:36:24.875Z,32.00
2023-02-16T23:38:51.858Z,33.93
2023-02-16T23:41:19.667Z,37.70
2023-02-16T23:43:46.718Z,38.53
2023-02-16T23:46:13.840Z,37.50
2023-02-16T23:48:41.374Z,30.90
2023-02-16T23:51:10.054Z,33.40
2023-02-16T23:53:38.922Z,37.63
2023-02-16T23:56:08.538Z,33.20
2023-02-16T23:58:41.551Z,31.77
